sensor_id;sensor_type;location;lat;lon;timestamp;P1;durP1;ratioP1;P2;durP2;ratioP2
16662;SDS011;8445;51.270;9.434;2024-01-16T00:00:07;8.97;;;6.33;;
16662;SDS011;8445;51.270;9.434;2024-01-16T00:02:34;7.87;;;6.53;;
16662;SDS011;8445;51.270;9.434;2024-01-16T00:05:00;8.30;;;7.50;;
16662;SDS011;8445;51.270;9.434;2024-01-16T00:07:26;8.37;;;7.50;;
16662;SDS011;8445;51.270;9.434;2024-01-16T00:09:51;7.33;;;6.63;;
16662;SDS011;8445;51.270;9.434;2024-01-16T00:12:18;9.07;;;7.17;;
16662;SDS011;8445;51.270;9.434;2024-01-16T00:14:45;7.90;;;7.07;;
16662;SDS011;8445;51.270;9.434;2024-01-16T00:17:11;7.77;;;7.03;;
16662;SDS011;8445;51.270;9.434;2024-01-16T00:19:37;9.50;;;6.97;;
16662;SDS011;8445;51.270;9.434;2024-01-16T00:22:03;7.03;;;6.40;;
16662;SDS011;8445;51.270;9.434;2024-01-16T00:24:30;13.87;;;6.90;;
16662;SDS011;8445;51.270;9.434;2024-01-16T00:26:56;9.07;;;6.50;;
16662;SDS011;8445;51.270;9.434;2024-01-16T00:29:22;7.33;;;6.60;;
16662;SDS011;8445;51.270;9.434;2024-01-16T00:31:48;8.53;;;6.83;;
16662;SDS011;8445;51.270;9.434;2024-01-16T00:34:14;6.50;;;6.10;;
16662;SDS011;8445;51.270;9.434;2024-01-16T00:36:40;7.37;;;6.67;;
16662;SDS011;8445;51.270;9.434;2024-01-16T00:39:06;8.33;;;6.67;;
16662;SDS011;8445;51.270;9.434;2024-01-16T00:41:33;7.17;;;6.47;;
16662;SDS011;8445;51.270;9.434;2024-01-16T00:43:59;7.50;;;6.90;;
16662;SDS011;8445;51.270;9.434;2024-01-16T00:46:25;6.87;;;6.33;;
16662;SDS011;8445;51.270;9.434;2024-01-16T00:48:51;7.23;;;6.60;;
16662;SDS011;8445;51.270;9.434;2024-01-16T00:51:17;7.17;;;6.63;;
16662;SDS011;8445;51.270;9.434;2024-01-16T00:53:43;7.63;;;7.03;;
16662;SDS011;8445;51.270;9.434;2024-01-16T00:56:09;6.70;;;6.13;;
16662;SDS011;8445;51.270;9.434;2024-01-16T00:58:36;8.00;;;7.23;;
16662;SDS011;8445;51.270;9.434;2024-01-16T01:01:02;7.60;;;6.70;;
16662;SDS011;8445;51.270;9.434;2024-01-16T01:03:28;7.43;;;6.70;;
16662;SDS011;8445;51.270;9.434;2024-01-16T01:05:55;7.17;;;6.60;;
16662;SDS011;8445;51.270;9.434;2024-01-16T01:08:21;8.97;;;6.77;;
16662;SDS011;8445;51.270;9.434;2024-01-16T01:10:47;7.53;;;6.87;;
16662;SDS011;8445;51.270;9.434;2024-01-16T01:13:13;7.13;;;6.53;;
16662;SDS011;8445;51.270;9.434;2024-01-16T01:15:39;7.50;;;6.90;;
16662;SDS011;8445;51.270;9.434;2024-01-16T01:18:05;7.03;;;6.40;;
16662;SDS011;8445;51.270;9.434;2024-01-16T01:20:31;7.67;;;6.97;;
16662;SDS011;8445;51.270;9.434;2024-01-16T01:22:57;7.13;;;6.60;;
16662;SDS011;8445;51.270;9.434;2024-01-16T01:25:25;7.80;;;7.10;;
16662;SDS011;8445;51.270;9.434;2024-01-16T01:27:51;8.03;;;7.23;;
16662;SDS011;8445;51.270;9.434;2024-01-16T01:30:17;8.50;;;7.67;;
16662;SDS011;8445;51.270;9.434;2024-01-16T01:32:43;8.27;;;7.50;;
16662;SDS011;8445;51.270;9.434;2024-01-16T01:35:09;8.17;;;7.30;;
16662;SDS011;8445;51.270;9.434;2024-01-16T01:37:36;7.77;;;7.07;;
16662;SDS011;8445;51.270;9.434;2024-01-16T01:40:03;8.30;;;7.60;;
16662;SDS011;8445;51.270;9.434;2024-01-16T01:42:29;8.97;;;7.03;;
16662;SDS011;8445;51.270;9.434;2024-01-16T01:44:55;7.53;;;7.03;;
16662;SDS011;8445;51.270;9.434;2024-01-16T01:47:21;8.50;;;7.40;;
16662;SDS011;8445;51.270;9.434;2024-01-16T01:49:48;7.60;;;6.80;;
16662;SDS011;8445;51.270;9.434;2024-01-16T01:52:14;8.03;;;7.33;;
16662;SDS011;8445;51.270;9.434;2024-01-16T01:54:42;11.87;;;7.33;;
16662;SDS011;8445;51.270;9.434;2024-01-16T01:57:10;7.27;;;6.67;;
16662;SDS011;8445;51.270;9.434;2024-01-16T01:59:36;7.27;;;6.77;;
16662;SDS011;8445;51.270;9.434;2024-01-16T02:02:02;8.90;;;7.00;;
16662;SDS011;8445;51.270;9.434;2024-01-16T02:04:30;9.83;;;6.80;;
16662;SDS011;8445;51.270;9.434;2024-01-16T02:06:57;8.53;;;6.87;;
16662;SDS011;8445;51.270;9.434;2024-01-16T02:09:23;9.67;;;7.20;;
16662;SDS011;8445;51.270;9.434;2024-01-16T02:11:51;9.10;;;7.00;;
16662;SDS011;8445;51.270;9.434;2024-01-16T02:14:17;10.60;;;7.43;;
16662;SDS011;8445;51.270;9.434;2024-01-16T02:16:43;8.67;;;7.13;;
16662;SDS011;8445;51.270;9.434;2024-01-16T02:19:11;7.53;;;6.83;;
16662;SDS011;8445;51.270;9.434;2024-01-16T02:21:47;12.73;;;7.03;;
16662;SDS011;8445;51.270;9.434;2024-01-16T02:24:17;8.60;;;7.10;;
16662;SDS011;8445;51.270;9.434;2024-01-16T02:26:44;9.77;;;7.20;;
16662;SDS011;8445;51.270;9.434;2024-01-16T02:29:10;7.77;;;6.87;;
16662;SDS011;8445;51.270;9.434;2024-01-16T02:31:38;9.97;;;7.43;;
16662;SDS011;8445;51.270;9.434;2024-01-16T02:34:04;6.87;;;6.27;;
16662;SDS011;8445;51.270;9.434;2024-01-16T02:36:30;8.00;;;7.10;;
16662;SDS011;8445;51.270;9.434;2024-01-16T02:38:57;12.43;;;7.17;;
16662;SDS011;8445;51.270;9.434;2024-01-16T02:41:23;7.60;;;6.73;;
16662;SDS011;8445;51.270;9.434;2024-01-16T02:43:51;10.50;;;7.67;;
16662;SDS011;8445;51.270;9.434;2024-01-16T02:46:17;10.27;;;6.77;;
16662;SDS011;8445;51.270;9.434;2024-01-16T02:48:43;11.27;;;7.40;;
16662;SDS011;8445;51.270;9.434;2024-01-16T02:51:09;7.93;;;6.73;;
16662;SDS011;8445;51.270;9.434;2024-01-16T02:53:35;8.27;;;6.77;;
16662;SDS011;8445;51.270;9.434;2024-01-16T02:56:01;8.50;;;7.17;;
16662;SDS011;8445;51.270;9.434;2024-01-16T02:58:27;7.93;;;7.07;;
16662;SDS011;8445;51.270;9.434;2024-01-16T03:00:54;9.80;;;7.23;;
16662;SDS011;8445;51.270;9.434;2024-01-16T03:03:20;8.97;;;7.10;;
16662;SDS011;8445;51.270;9.434;2024-01-16T03:05:47;8.77;;;6.73;;
16662;SDS011;8445;51.270;9.434;2024-01-16T03:08:13;8.23;;;6.70;;
16662;SDS011;8445;51.270;9.434;2024-01-16T03:10:39;7.53;;;6.50;;
16662;SDS011;8445;51.270;9.434;2024-01-16T03:13:07;10.30;;;7.10;;
16662;SDS011;8445;51.270;9.434;2024-01-16T03:15:33;7.50;;;6.77;;
16662;SDS011;8445;51.270;9.434;2024-01-16T03:17:59;10.80;;;7.47;;
16662;SDS011;8445;51.270;9.434;2024-01-16T03:20:28;10.27;;;6.83;;
16662;SDS011;8445;51.270;9.434;2024-01-16T03:22:54;8.33;;;7.03;;
16662;SDS011;8445;51.270;9.434;2024-01-16T03:25:21;9.07;;;7.30;;
16662;SDS011;8445;51.270;9.434;2024-01-16T03:27:47;11.63;;;7.00;;
16662;SDS011;8445;51.270;9.434;2024-01-16T03:30:13;10.57;;;7.40;;
16662;SDS011;8445;51.270;9.434;2024-01-16T03:32:39;11.33;;;7.17;;
16662;SDS011;8445;51.270;9.434;2024-01-16T03:35:05;10.73;;;7.03;;
16662;SDS011;8445;51.270;9.434;2024-01-16T03:37:32;7.90;;;6.87;;
16662;SDS011;8445;51.270;9.434;2024-01-16T03:39:59;8.07;;;6.63;;
16662;SDS011;8445;51.270;9.434;2024-01-16T03:42:25;7.80;;;6.90;;
16662;SDS011;8445;51.270;9.434;2024-01-16T03:44:51;10.53;;;7.87;;
16662;SDS011;8445;51.270;9.434;2024-01-16T03:47:17;11.33;;;6.93;;
16662;SDS011;8445;51.270;9.434;2024-01-16T03:49:44;11.57;;;7.37;;
16662;SDS011;8445;51.270;9.434;2024-01-16T03:52:10;9.93;;;7.73;;
16662;SDS011;8445;51.270;9.434;2024-01-16T03:54:36;10.77;;;7.93;;
16662;SDS011;8445;51.270;9.434;2024-01-16T03:57:02;11.33;;;7.50;;
16662;SDS011;8445;51.270;9.434;2024-01-16T03:59:28;7.80;;;6.80;;
16662;SDS011;8445;51.270;9.434;2024-01-16T04:01:54;10.00;;;7.00;;
16662;SDS011;8445;51.270;9.434;2024-01-16T04:04:20;7.80;;;6.80;;
16662;SDS011;8445;51.270;9.434;2024-01-16T04:06:48;7.80;;;7.10;;
16662;SDS011;8445;51.270;9.434;2024-01-16T04:09:13;11.10;;;7.33;;
16662;SDS011;8445;51.270;9.434;2024-01-16T04:11:39;9.60;;;7.37;;
16662;SDS011;8445;51.270;9.434;2024-01-16T04:14:06;10.67;;;7.20;;
16662;SDS011;8445;51.270;9.434;2024-01-16T04:16:32;7.90;;;7.20;;
16662;SDS011;8445;51.270;9.434;2024-01-16T04:18:58;10.87;;;6.73;;
16662;SDS011;8445;51.270;9.434;2024-01-16T04:21:24;8.83;;;8.03;;
16662;SDS011;8445;51.270;9.434;2024-01-16T04:23:50;13.63;;;7.80;;
16662;SDS011;8445;51.270;9.434;2024-01-16T04:26:16;10.57;;;7.83;;
16662;SDS011;8445;51.270;9.434;2024-01-16T04:28:42;10.77;;;7.40;;
16662;SDS011;8445;51.270;9.434;2024-01-16T04:31:09;8.03;;;6.87;;
16662;SDS011;8445;51.270;9.434;2024-01-16T04:33:37;9.23;;;7.07;;
16662;SDS011;8445;51.270;9.434;2024-01-16T04:36:04;8.70;;;7.90;;
16662;SDS011;8445;51.270;9.434;2024-01-16T04:38:32;10.63;;;7.17;;
16662;SDS011;8445;51.270;9.434;2024-01-16T04:41:00;13.03;;;7.87;;
16662;SDS011;8445;51.270;9.434;2024-01-16T04:43:32;8.67;;;7.43;;
16662;SDS011;8445;51.270;9.434;2024-01-16T04:46:00;9.77;;;7.53;;
16662;SDS011;8445;51.270;9.434;2024-01-16T04:48:26;7.57;;;6.73;;
16662;SDS011;8445;51.270;9.434;2024-01-16T04:50:54;7.77;;;7.10;;
16662;SDS011;8445;51.270;9.434;2024-01-16T04:53:20;10.80;;;6.73;;
16662;SDS011;8445;51.270;9.434;2024-01-16T04:55:46;7.57;;;6.93;;
16662;SDS011;8445;51.270;9.434;2024-01-16T04:58:12;12.90;;;7.20;;
16662;SDS011;8445;51.270;9.434;2024-01-16T05:00:38;8.10;;;7.30;;
16662;SDS011;8445;51.270;9.434;2024-01-16T05:03:04;7.43;;;6.83;;
16662;SDS011;8445;51.270;9.434;2024-01-16T05:05:30;8.43;;;7.43;;
16662;SDS011;8445;51.270;9.434;2024-01-16T05:07:56;7.30;;;6.60;;
16662;SDS011;8445;51.270;9.434;2024-01-16T05:10:22;8.17;;;7.37;;
16662;SDS011;8445;51.270;9.434;2024-01-16T05:12:48;9.60;;;6.97;;
16662;SDS011;8445;51.270;9.434;2024-01-16T05:15:14;8.87;;;7.43;;
16662;SDS011;8445;51.270;9.434;2024-01-16T05:17:40;9.33;;;8.03;;
16662;SDS011;8445;51.270;9.434;2024-01-16T05:20:06;11.50;;;7.53;;
16662;SDS011;8445;51.270;9.434;2024-01-16T05:22:33;7.57;;;6.97;;
16662;SDS011;8445;51.270;9.434;2024-01-16T05:24:59;7.87;;;7.17;;
16662;SDS011;8445;51.270;9.434;2024-01-16T05:27:26;7.90;;;7.20;;
16662;SDS011;8445;51.270;9.434;2024-01-16T05:29:53;14.27;;;7.80;;
16662;SDS011;8445;51.270;9.434;2024-01-16T05:32:21;12.13;;;7.70;;
16662;SDS011;8445;51.270;9.434;2024-01-16T05:34:47;8.60;;;7.80;;
16662;SDS011;8445;51.270;9.434;2024-01-16T05:37:13;9.17;;;7.50;;
16662;SDS011;8445;51.270;9.434;2024-01-16T05:39:40;8.63;;;7.63;;
16662;SDS011;8445;51.270;9.434;2024-01-16T05:42:06;12.33;;;7.43;;
16662;SDS011;8445;51.270;9.434;2024-01-16T05:44:32;8.30;;;7.30;;
16662;SDS011;8445;51.270;9.434;2024-01-16T05:47:01;10.53;;;7.07;;
16662;SDS011;8445;51.270;9.434;2024-01-16T05:49:31;8.07;;;7.07;;
16662;SDS011;8445;51.270;9.434;2024-01-16T05:52:08;9.17;;;7.07;;
16662;SDS011;8445;51.270;9.434;2024-01-16T05:54:37;9.37;;;7.67;;
16662;SDS011;8445;51.270;9.434;2024-01-16T05:57:04;9.17;;;7.70;;
16662;SDS011;8445;51.270;9.434;2024-01-16T05:59:35;8.93;;;7.90;;
16662;SDS011;8445;51.270;9.434;2024-01-16T06:02:08;9.37;;;7.57;;
16662;SDS011;8445;51.270;9.434;2024-01-16T06:04:36;10.43;;;7.13;;
16662;SDS011;8445;51.270;9.434;2024-01-16T06:07:01;10.43;;;7.70;;
16662;SDS011;8445;51.270;9.434;2024-01-16T06:09:31;12.30;;;9.20;;
16662;SDS011;8445;51.270;9.434;2024-01-16T06:11:57;10.63;;;8.60;;
16662;SDS011;8445;51.270;9.434;2024-01-16T06:14:23;10.57;;;7.03;;
16662;SDS011;8445;51.270;9.434;2024-01-16T06:16:49;8.03;;;7.23;;
16662;SDS011;8445;51.270;9.434;2024-01-16T06:19:16;8.50;;;7.07;;
16662;SDS011;8445;51.270;9.434;2024-01-16T06:21:42;11.33;;;7.30;;
16662;SDS011;8445;51.270;9.434;2024-01-16T06:24:08;8.23;;;6.80;;
16662;SDS011;8445;51.270;9.434;2024-01-16T06:26:34;7.63;;;6.93;;
16662;SDS011;8445;51.270;9.434;2024-01-16T06:29:00;9.57;;;7.27;;
16662;SDS011;8445;51.270;9.434;2024-01-16T06:31:25;9.40;;;7.03;;
16662;SDS011;8445;51.270;9.434;2024-01-16T06:33:51;7.60;;;7.10;;
16662;SDS011;8445;51.270;9.434;2024-01-16T06:36:17;8.83;;;7.20;;
16662;SDS011;8445;51.270;9.434;2024-01-16T06:38:43;7.57;;;6.90;;
16662;SDS011;8445;51.270;9.434;2024-01-16T06:41:09;10.77;;;6.77;;
16662;SDS011;8445;51.270;9.434;2024-01-16T06:43:35;12.00;;;7.40;;
16662;SDS011;8445;51.270;9.434;2024-01-16T06:46:00;7.33;;;6.60;;
16662;SDS011;8445;51.270;9.434;2024-01-16T06:48:27;12.33;;;7.40;;
16662;SDS011;8445;51.270;9.434;2024-01-16T06:50:52;7.53;;;6.57;;
16662;SDS011;8445;51.270;9.434;2024-01-16T06:53:18;8.00;;;6.80;;
16662;SDS011;8445;51.270;9.434;2024-01-16T06:55:44;8.67;;;7.17;;
16662;SDS011;8445;51.270;9.434;2024-01-16T06:58:10;7.73;;;6.80;;
16662;SDS011;8445;51.270;9.434;2024-01-16T07:00:36;6.57;;;6.00;;
16662;SDS011;8445;51.270;9.434;2024-01-16T07:03:02;7.13;;;6.40;;
16662;SDS011;8445;51.270;9.434;2024-01-16T07:05:28;9.33;;;6.63;;
16662;SDS011;8445;51.270;9.434;2024-01-16T07:07:54;8.60;;;7.13;;
16662;SDS011;8445;51.270;9.434;2024-01-16T07:10:20;11.03;;;7.47;;
16662;SDS011;8445;51.270;9.434;2024-01-16T07:12:47;12.90;;;7.03;;
16662;SDS011;8445;51.270;9.434;2024-01-16T07:15:14;7.87;;;7.07;;
16662;SDS011;8445;51.270;9.434;2024-01-16T07:17:40;8.10;;;6.83;;
16662;SDS011;8445;51.270;9.434;2024-01-16T07:20:06;6.77;;;6.20;;
16662;SDS011;8445;51.270;9.434;2024-01-16T07:22:33;8.20;;;7.27;;
16662;SDS011;8445;51.270;9.434;2024-01-16T07:24:59;8.70;;;6.10;;
16662;SDS011;8445;51.270;9.434;2024-01-16T07:27:26;15.73;;;9.07;;
16662;SDS011;8445;51.270;9.434;2024-01-16T07:29:52;8.50;;;6.33;;
16662;SDS011;8445;51.270;9.434;2024-01-16T07:32:18;7.03;;;5.60;;
16662;SDS011;8445;51.270;9.434;2024-01-16T07:34:44;8.40;;;6.43;;
16662;SDS011;8445;51.270;9.434;2024-01-16T07:37:10;9.67;;;6.90;;
16662;SDS011;8445;51.270;9.434;2024-01-16T07:39:36;9.73;;;6.30;;
16662;SDS011;8445;51.270;9.434;2024-01-16T07:42:02;9.53;;;6.77;;
16662;SDS011;8445;51.270;9.434;2024-01-16T07:44:29;11.63;;;6.37;;
16662;SDS011;8445;51.270;9.434;2024-01-16T07:46:55;8.67;;;6.47;;
16662;SDS011;8445;51.270;9.434;2024-01-16T07:49:21;7.73;;;6.60;;
16662;SDS011;8445;51.270;9.434;2024-01-16T07:51:49;10.10;;;7.20;;
16662;SDS011;8445;51.270;9.434;2024-01-16T07:54:15;7.10;;;6.47;;
16662;SDS011;8445;51.270;9.434;2024-01-16T07:56:41;8.60;;;6.77;;
16662;SDS011;8445;51.270;9.434;2024-01-16T07:59:08;9.27;;;5.90;;
16662;SDS011;8445;51.270;9.434;2024-01-16T08:01:33;9.23;;;7.07;;
16662;SDS011;8445;51.270;9.434;2024-01-16T08:03:59;7.97;;;6.70;;
16662;SDS011;8445;51.270;9.434;2024-01-16T08:06:25;7.47;;;6.77;;
16662;SDS011;8445;51.270;9.434;2024-01-16T08:08:52;9.40;;;7.30;;
16662;SDS011;8445;51.270;9.434;2024-01-16T08:11:18;10.50;;;6.87;;
16662;SDS011;8445;51.270;9.434;2024-01-16T08:13:44;7.53;;;6.20;;
16662;SDS011;8445;51.270;9.434;2024-01-16T08:16:10;7.27;;;6.53;;
16662;SDS011;8445;51.270;9.434;2024-01-16T08:18:36;12.07;;;6.87;;
16662;SDS011;8445;51.270;9.434;2024-01-16T08:21:02;9.97;;;6.50;;
16662;SDS011;8445;51.270;9.434;2024-01-16T08:23:28;7.90;;;6.60;;
16662;SDS011;8445;51.270;9.434;2024-01-16T08:25:54;7.20;;;6.30;;
16662;SDS011;8445;51.270;9.434;2024-01-16T08:28:20;10.80;;;6.93;;
16662;SDS011;8445;51.270;9.434;2024-01-16T08:30:49;9.80;;;6.90;;
16662;SDS011;8445;51.270;9.434;2024-01-16T08:33:15;10.70;;;7.40;;
16662;SDS011;8445;51.270;9.434;2024-01-16T08:35:41;8.57;;;7.30;;
16662;SDS011;8445;51.270;9.434;2024-01-16T08:38:06;9.47;;;7.30;;
16662;SDS011;8445;51.270;9.434;2024-01-16T08:40:32;8.57;;;7.70;;
16662;SDS011;8445;51.270;9.434;2024-01-16T08:42:58;8.27;;;7.10;;
16662;SDS011;8445;51.270;9.434;2024-01-16T08:45:24;7.87;;;7.03;;
16662;SDS011;8445;51.270;9.434;2024-01-16T08:47:51;9.63;;;7.60;;
16662;SDS011;8445;51.270;9.434;2024-01-16T08:50:17;8.57;;;7.20;;
16662;SDS011;8445;51.270;9.434;2024-01-16T08:52:43;7.43;;;6.83;;
16662;SDS011;8445;51.270;9.434;2024-01-16T08:55:08;11.67;;;7.97;;
16662;SDS011;8445;51.270;9.434;2024-01-16T08:57:35;8.00;;;7.30;;
16662;SDS011;8445;51.270;9.434;2024-01-16T09:00:05;8.57;;;7.30;;
16662;SDS011;8445;51.270;9.434;2024-01-16T09:02:34;9.23;;;7.30;;
16662;SDS011;8445;51.270;9.434;2024-01-16T09:05:00;10.17;;;7.80;;
16662;SDS011;8445;51.270;9.434;2024-01-16T09:07:27;9.67;;;7.77;;
16662;SDS011;8445;51.270;9.434;2024-01-16T09:09:53;7.87;;;7.17;;
16662;SDS011;8445;51.270;9.434;2024-01-16T09:12:19;10.77;;;8.13;;
16662;SDS011;8445;51.270;9.434;2024-01-16T09:14:45;9.73;;;7.70;;
16662;SDS011;8445;51.270;9.434;2024-01-16T09:17:11;9.57;;;8.33;;
16662;SDS011;8445;51.270;9.434;2024-01-16T09:19:37;8.53;;;7.60;;
16662;SDS011;8445;51.270;9.434;2024-01-16T09:22:03;10.47;;;8.50;;
16662;SDS011;8445;51.270;9.434;2024-01-16T09:24:30;17.50;;;8.50;;
16662;SDS011;8445;51.270;9.434;2024-01-16T09:26:56;9.63;;;7.90;;
16662;SDS011;8445;51.270;9.434;2024-01-16T09:29:23;9.17;;;8.20;;
16662;SDS011;8445;51.270;9.434;2024-01-16T09:31:49;10.90;;;8.67;;
16662;SDS011;8445;51.270;9.434;2024-01-16T09:34:22;9.10;;;8.20;;
16662;SDS011;8445;51.270;9.434;2024-01-16T09:36:53;10.87;;;8.60;;
16662;SDS011;8445;51.270;9.434;2024-01-16T09:39:27;10.47;;;9.37;;
16662;SDS011;8445;51.270;9.434;2024-01-16T09:42:04;11.00;;;9.10;;
16662;SDS011;8445;51.270;9.434;2024-01-16T09:44:33;9.77;;;8.80;;
16662;SDS011;8445;51.270;9.434;2024-01-16T09:47:01;13.47;;;9.33;;
16662;SDS011;8445;51.270;9.434;2024-01-16T09:49:29;9.60;;;8.67;;
16662;SDS011;8445;51.270;9.434;2024-01-16T09:51:56;13.47;;;9.37;;
16662;SDS011;8445;51.270;9.434;2024-01-16T09:54:27;11.83;;;9.40;;
16662;SDS011;8445;51.270;9.434;2024-01-16T09:56:54;10.73;;;8.83;;
16662;SDS011;8445;51.270;9.434;2024-01-16T09:59:29;12.13;;;8.70;;
16662;SDS011;8445;51.270;9.434;2024-01-16T10:01:59;10.03;;;8.93;;
16662;SDS011;8445;51.270;9.434;2024-01-16T10:04:31;10.50;;;9.17;;
16662;SDS011;8445;51.270;9.434;2024-01-16T10:07:01;10.30;;;9.40;;
16662;SDS011;8445;51.270;9.434;2024-01-16T10:09:33;9.17;;;8.47;;
16662;SDS011;8445;51.270;9.434;2024-01-16T10:12:01;9.43;;;8.53;;
16662;SDS011;8445;51.270;9.434;2024-01-16T10:14:28;11.73;;;8.73;;
16662;SDS011;8445;51.270;9.434;2024-01-16T10:16:59;9.90;;;8.90;;
16662;SDS011;8445;51.270;9.434;2024-01-16T10:19:31;8.90;;;7.97;;
16662;SDS011;8445;51.270;9.434;2024-01-16T10:22:03;11.30;;;8.60;;
16662;SDS011;8445;51.270;9.434;2024-01-16T10:24:31;11.63;;;7.70;;
16662;SDS011;8445;51.270;9.434;2024-01-16T10:27:00;11.43;;;7.83;;
16662;SDS011;8445;51.270;9.434;2024-01-16T10:29:31;8.17;;;7.47;;
16662;SDS011;8445;51.270;9.434;2024-01-16T10:31:57;9.27;;;7.43;;
16662;SDS011;8445;51.270;9.434;2024-01-16T10:34:24;9.97;;;6.70;;
16662;SDS011;8445;51.270;9.434;2024-01-16T10:36:58;12.00;;;6.97;;
16662;SDS011;8445;51.270;9.434;2024-01-16T10:39:28;10.37;;;6.33;;
16662;SDS011;8445;51.270;9.434;2024-01-16T10:41:55;8.17;;;6.27;;
16662;SDS011;8445;51.270;9.434;2024-01-16T10:44:22;8.73;;;6.57;;
16662;SDS011;8445;51.270;9.434;2024-01-16T10:46:49;6.57;;;5.87;;
16662;SDS011;8445;51.270;9.434;2024-01-16T10:49:15;8.50;;;5.67;;
16662;SDS011;8445;51.270;9.434;2024-01-16T10:51:42;9.00;;;5.93;;
16662;SDS011;8445;51.270;9.434;2024-01-16T10:54:12;9.00;;;5.93;;
16662;SDS011;8445;51.270;9.434;2024-01-16T10:56:44;6.57;;;5.50;;
16662;SDS011;8445;51.270;9.434;2024-01-16T10:59:28;8.77;;;6.07;;
16662;SDS011;8445;51.270;9.434;2024-01-16T11:02:03;6.23;;;5.27;;
16662;SDS011;8445;51.270;9.434;2024-01-16T11:04:36;8.90;;;5.77;;
16662;SDS011;8445;51.270;9.434;2024-01-16T11:07:05;6.40;;;5.80;;
16662;SDS011;8445;51.270;9.434;2024-01-16T11:09:31;6.17;;;5.50;;
16662;SDS011;8445;51.270;9.434;2024-01-16T11:11:58;7.50;;;5.87;;
16662;SDS011;8445;51.270;9.434;2024-01-16T11:14:25;6.23;;;5.60;;
16662;SDS011;8445;51.270;9.434;2024-01-16T11:16:53;10.50;;;5.90;;
16662;SDS011;8445;51.270;9.434;2024-01-16T11:19:23;11.20;;;6.77;;
16662;SDS011;8445;51.270;9.434;2024-01-16T11:21:50;9.00;;;5.80;;
16662;SDS011;8445;51.270;9.434;2024-01-16T11:24:17;7.90;;;5.77;;
16662;SDS011;8445;51.270;9.434;2024-01-16T11:26:43;6.47;;;5.80;;
16662;SDS011;8445;51.270;9.434;2024-01-16T11:31:54;6.50;;;5.90;;
16662;SDS011;8445;51.270;9.434;2024-01-16T11:37:13;8.37;;;6.20;;
16662;SDS011;8445;51.270;9.434;2024-01-16T11:39:40;9.73;;;5.80;;
16662;SDS011;8445;51.270;9.434;2024-01-16T11:42:06;7.00;;;5.77;;
16662;SDS011;8445;51.270;9.434;2024-01-16T11:44:48;10.47;;;6.10;;
16662;SDS011;8445;51.270;9.434;2024-01-16T11:47:20;7.50;;;5.80;;
16662;SDS011;8445;51.270;9.434;2024-01-16T11:49:47;6.37;;;5.77;;
16662;SDS011;8445;51.270;9.434;2024-01-16T11:52:15;6.13;;;5.53;;
16662;SDS011;8445;51.270;9.434;2024-01-16T12:00:47;7.87;;;6.10;;
16662;SDS011;8445;51.270;9.434;2024-01-16T12:03:18;9.87;;;6.13;;
16662;SDS011;8445;51.270;9.434;2024-01-16T12:05:59;7.63;;;6.40;;
16662;SDS011;8445;51.270;9.434;2024-01-16T12:08:31;8.03;;;6.73;;
16662;SDS011;8445;51.270;9.434;2024-01-16T12:10:57;7.80;;;6.67;;
16662;SDS011;8445;51.270;9.434;2024-01-16T12:13:25;7.40;;;6.77;;
16662;SDS011;8445;51.270;9.434;2024-01-16T12:16:00;7.63;;;6.70;;
16662;SDS011;8445;51.270;9.434;2024-01-16T12:18:29;7.80;;;6.73;;
16662;SDS011;8445;51.270;9.434;2024-01-16T12:20:55;7.07;;;6.50;;
16662;SDS011;8445;51.270;9.434;2024-01-16T12:23:24;8.83;;;6.93;;
16662;SDS011;8445;51.270;9.434;2024-01-16T12:25:53;7.93;;;6.70;;
16662;SDS011;8445;51.270;9.434;2024-01-16T12:28:20;7.33;;;6.53;;
16662;SDS011;8445;51.270;9.434;2024-01-16T12:30:50;8.43;;;6.67;;
16662;SDS011;8445;51.270;9.434;2024-01-16T12:33:21;7.03;;;6.37;;
16662;SDS011;8445;51.270;9.434;2024-01-16T12:35:48;7.80;;;6.37;;
16662;SDS011;8445;51.270;9.434;2024-01-16T12:38:14;6.13;;;5.57;;
16662;SDS011;8445;51.270;9.434;2024-01-16T12:40:44;6.60;;;5.90;;
16662;SDS011;8445;51.270;9.434;2024-01-16T12:43:12;7.40;;;6.03;;
16662;SDS011;8445;51.270;9.434;2024-01-16T12:45:39;6.43;;;5.80;;
16662;SDS011;8445;51.270;9.434;2024-01-16T12:48:05;8.73;;;6.13;;
16662;SDS011;8445;51.270;9.434;2024-01-16T12:50:31;6.47;;;5.90;;
16662;SDS011;8445;51.270;9.434;2024-01-16T12:53:07;6.27;;;5.67;;
16662;SDS011;8445;51.270;9.434;2024-01-16T12:55:38;6.93;;;5.93;;
16662;SDS011;8445;51.270;9.434;2024-01-16T12:58:15;9.33;;;5.63;;
16662;SDS011;8445;51.270;9.434;2024-01-16T13:00:43;7.80;;;6.00;;
16662;SDS011;8445;51.270;9.434;2024-01-16T13:03:20;9.07;;;6.13;;
16662;SDS011;8445;51.270;9.434;2024-01-16T13:05:56;6.97;;;5.60;;
16662;SDS011;8445;51.270;9.434;2024-01-16T13:08:25;6.33;;;5.70;;
16662;SDS011;8445;51.270;9.434;2024-01-16T13:11:02;6.13;;;5.63;;
16662;SDS011;8445;51.270;9.434;2024-01-16T13:13:30;8.00;;;5.23;;
16662;SDS011;8445;51.270;9.434;2024-01-16T13:15:57;6.13;;;5.10;;
16662;SDS011;8445;51.270;9.434;2024-01-16T13:18:25;6.40;;;5.33;;
16662;SDS011;8445;51.270;9.434;2024-01-16T13:20:53;7.07;;;5.20;;
16662;SDS011;8445;51.270;9.434;2024-01-16T13:23:21;5.60;;;5.10;;
16662;SDS011;8445;51.270;9.434;2024-01-16T13:25:52;5.10;;;4.60;;
16662;SDS011;8445;51.270;9.434;2024-01-16T13:28:28;7.17;;;4.90;;
16662;SDS011;8445;51.270;9.434;2024-01-16T13:30:55;7.23;;;5.03;;
16662;SDS011;8445;51.270;9.434;2024-01-16T13:33:22;6.30;;;5.30;;
16662;SDS011;8445;51.270;9.434;2024-01-16T13:35:52;5.80;;;5.20;;
16662;SDS011;8445;51.270;9.434;2024-01-16T13:38:19;5.53;;;4.97;;
16662;SDS011;8445;51.270;9.434;2024-01-16T13:40:46;7.03;;;5.10;;
16662;SDS011;8445;51.270;9.434;2024-01-16T13:43:12;5.77;;;5.13;;
16662;SDS011;8445;51.270;9.434;2024-01-16T13:45:38;6.30;;;4.60;;
16662;SDS011;8445;51.270;9.434;2024-01-16T13:48:06;6.60;;;5.10;;
16662;SDS011;8445;51.270;9.434;2024-01-16T13:50:33;7.13;;;5.07;;
16662;SDS011;8445;51.270;9.434;2024-01-16T13:53:00;4.70;;;4.37;;
16662;SDS011;8445;51.270;9.434;2024-01-16T13:55:30;6.37;;;4.40;;
16662;SDS011;8445;51.270;9.434;2024-01-16T13:57:57;4.97;;;4.57;;
16662;SDS011;8445;51.270;9.434;2024-01-16T14:00:23;5.30;;;4.80;;
16662;SDS011;8445;51.270;9.434;2024-01-16T14:02:49;4.83;;;4.43;;
16662;SDS011;8445;51.270;9.434;2024-01-16T14:05:16;5.47;;;4.67;;
16662;SDS011;8445;51.270;9.434;2024-01-16T14:07:44;7.13;;;4.90;;
16662;SDS011;8445;51.270;9.434;2024-01-16T14:10:12;9.67;;;4.90;;
16662;SDS011;8445;51.270;9.434;2024-01-16T14:12:43;6.67;;;4.50;;
16662;SDS011;8445;51.270;9.434;2024-01-16T14:15:11;5.10;;;4.70;;
16662;SDS011;8445;51.270;9.434;2024-01-16T14:17:44;5.87;;;5.27;;
16662;SDS011;8445;51.270;9.434;2024-01-16T14:20:16;5.33;;;4.60;;
16662;SDS011;8445;51.270;9.434;2024-01-16T14:22:46;5.13;;;4.73;;
16662;SDS011;8445;51.270;9.434;2024-01-16T14:25:12;7.13;;;4.47;;
16662;SDS011;8445;51.270;9.434;2024-01-16T14:27:40;5.80;;;4.80;;
16662;SDS011;8445;51.270;9.434;2024-01-16T14:30:11;8.03;;;4.47;;
16662;SDS011;8445;51.270;9.434;2024-01-16T14:32:39;5.30;;;4.63;;
16662;SDS011;8445;51.270;9.434;2024-01-16T14:35:08;7.13;;;5.00;;
16662;SDS011;8445;51.270;9.434;2024-01-16T14:37:36;5.40;;;4.67;;
16662;SDS011;8445;51.270;9.434;2024-01-16T14:40:03;5.57;;;4.50;;
16662;SDS011;8445;51.270;9.434;2024-01-16T14:42:45;4.90;;;4.50;;
16662;SDS011;8445;51.270;9.434;2024-01-16T14:45:24;8.43;;;4.50;;
16662;SDS011;8445;51.270;9.434;2024-01-16T14:47:56;6.90;;;5.37;;
16662;SDS011;8445;51.270;9.434;2024-01-16T14:50:22;6.90;;;5.37;;
16662;SDS011;8445;51.270;9.434;2024-01-16T14:52:49;5.97;;;5.27;;
16662;SDS011;8445;51.270;9.434;2024-01-16T14:55:17;10.90;;;5.30;;
16662;SDS011;8445;51.270;9.434;2024-01-16T14:57:45;5.80;;;5.13;;
16662;SDS011;8445;51.270;9.434;2024-01-16T15:00:17;5.27;;;4.77;;
16662;SDS011;8445;51.270;9.434;2024-01-16T15:02:54;5.87;;;5.27;;
16662;SDS011;8445;51.270;9.434;2024-01-16T15:05:22;8.30;;;5.37;;
16662;SDS011;8445;51.270;9.434;2024-01-16T15:07:48;5.63;;;5.13;;
16662;SDS011;8445;51.270;9.434;2024-01-16T15:10:19;6.17;;;5.50;;